createdAt,value
2017-11-17T00:00:57.886Z,38.63
2017-11-17T00:02:00.292Z,38.23
2017-11-17T00:03:01.594Z,37.37
2017-11-17T00:04:03.649Z,45.07
2017-11-17T00:05:05.685Z,38.10
2017-11-17T00:06:06.993Z,43.47
2017-11-17T00:07:08.625Z,39.87
2017-11-17T00:08:09.931Z,45.73
2017-11-17T00:09:11.216Z,38.70
2017-11-17T00:10:12.489Z,35.67
2017-11-17T00:11:14.520Z,39.23
2017-11-17T00:12:16.335Z,41.47
2017-11-17T00:13:17.637Z,42.20
2017-11-17T00:14:19.689Z,42.27
2017-11-17T00:15:21.737Z,36.10
2017-11-17T00:16:23.793Z,37.47
2017-11-17T00:17:26.109Z,37.17
2017-11-17T00:18:27.417Z,36.23
2017-11-17T00:19:28.753Z,37.73
2017-11-17T00:20:30.775Z,34.57
2017-11-17T00:21:32.073Z,36.73
2017-11-17T00:22:33.389Z,37.07
2017-11-17T00:23:34.677Z,34.87
2017-11-17T00:24:36.008Z,40.90
2017-11-17T00:25:37.308Z,38.67
2017-11-17T00:26:38.606Z,36.40
2017-11-17T00:27:40.682Z,40.43
2017-11-17T00:28:41.977Z,39.60
2017-11-17T00:29:43.279Z,45.20
2017-11-17T00:30:44.584Z,40.77
2017-11-17T00:31:46.639Z,36.77
2017-11-17T00:32:48.695Z,37.87
2017-11-17T00:33:57.080Z,35.37
2017-11-17T00:34:58.468Z,36.63
2017-11-17T00:35:59.818Z,38.70
2017-11-17T00:37:01.106Z,35.53
2017-11-17T00:38:03.508Z,42.03
2017-11-17T00:39:04.803Z,39.47
2017-11-17T00:40:06.829Z,42.13
2017-11-17T00:41:08.113Z,43.77
2017-11-17T00:42:10.140Z,34.07
2017-11-17T00:43:11.736Z,31.97
2017-11-17T00:44:13.024Z,33.63
2017-11-17T00:45:14.305Z,33.07
2017-11-17T00:46:15.576Z,35.70
2017-11-17T00:47:16.856Z,34.37
2017-11-17T00:48:19.297Z,35.00
2017-11-17T00:49:20.592Z,34.80
2017-11-17T00:50:21.890Z,36.03
2017-11-17T00:51:23.954Z,33.37
2017-11-17T00:52:25.256Z,32.50
2017-11-17T00:53:26.861Z,31.13
2017-11-17T00:54:28.174Z,29.83
2017-11-17T00:55:29.484Z,30.70
2017-11-17T00:56:30.785Z,33.70
2017-11-17T00:57:32.068Z,26.93
2017-11-17T00:58:34.401Z,32.93
2017-11-17T00:59:35.709Z,32.33
2017-11-17T01:00:36.995Z,29.83
2017-11-17T01:01:39.031Z,30.57
2017-11-17T01:02:40.333Z,33.43
2017-11-17T01:03:41.908Z,33.17
2017-11-17T01:04:43.200Z,31.70
2017-11-17T01:05:44.504Z,35.03
2017-11-17T01:06:45.796Z,33.50
2017-11-17T01:07:47.070Z,30.03
2017-11-17T01:08:48.680Z,34.20
2017-11-17T01:09:49.969Z,39.77
2017-11-17T01:10:52.005Z,37.47
2017-11-17T01:11:53.294Z,30.83
2017-11-17T01:12:54.582Z,31.37
2017-11-17T01:13:56.113Z,33.43
2017-11-17T01:14:57.405Z,31.47
2017-11-17T01:15:58.709Z,38.13
2017-11-17T01:16:59.984Z,38.37
2017-11-17T01:18:01.284Z,33.47
2017-11-17T01:19:02.883Z,33.47
2017-11-17T01:20:04.201Z,31.93
2017-11-17T01:21:05.505Z,36.20
2017-11-17T01:22:06.792Z,30.77
2017-11-17T01:23:08.076Z,29.77
2017-11-17T01:24:09.780Z,31.93
2017-11-17T01:25:11.068Z,30.17
2017-11-17T01:26:13.102Z,32.73
2017-11-17T01:27:14.404Z,33.50
2017-11-17T01:28:15.689Z,33.63
2017-11-17T01:29:17.031Z,33.20
2017-11-17T01:30:18.329Z,32.23
2017-11-17T01:31:19.638Z,27.73
2017-11-17T01:32:20.927Z,30.50
2017-11-17T01:33:22.229Z,32.10
2017-11-17T01:34:23.873Z,29.67
2017-11-17T01:35:25.171Z,34.80
2017-11-17T01:36:27.213Z,34.70
2017-11-17T01:37:28.513Z,31.50
2017-11-17T01:38:29.813Z,28.63
2017-11-17T01:39:32.158Z,34.77
2017-11-17T01:40:34.207Z,29.77
2017-11-17T01:41:35.528Z,36.77
2017-11-17T01:42:36.837Z,32.37
2017-11-17T01:43:38.136Z,32.67
2017-11-17T01:44:40.534Z,31.17
2017-11-17T01:45:41.840Z,34.33
2017-11-17T01:46:43.903Z,36.37
2017-11-17T01:47:45.220Z,33.67
2017-11-17T01:48:47.266Z,28.50
2017-11-17T01:49:48.832Z,33.00
2017-11-17T01:50:50.868Z,32.93
2017-11-17T01:51:52.184Z,32.77
2017-11-17T01:52:53.480Z,30.43
2017-11-17T01:53:54.771Z,29.33
2017-11-17T01:54:56.381Z,32.90
2017-11-17T01:55:57.734Z,35.33
2017-11-17T01:56:59.065Z,32.37
2017-11-17T01:58:00.428Z,29.43
2017-11-17T01:59:01.760Z,34.90
2017-11-17T02:00:03.578Z,32.37
2017-11-17T02:01:04.889Z,33.63
2017-11-17T02:02:19.067Z,32.50
2017-11-17T02:03:21.247Z,36.37
2017-11-17T02:04:22.609Z,38.50
2017-11-17T02:05:24.902Z,31.27
2017-11-17T02:06:26.240Z,32.73
2017-11-17T02:07:27.548Z,33.77
2017-11-17T02:08:29.617Z,33.43
2017-11-17T02:09:30.933Z,35.73
2017-11-17T02:10:32.540Z,32.30
2017-11-17T02:11:33.873Z,33.50
2017-11-17T02:12:35.190Z,33.30
2017-11-17T02:13:36.525Z,37.43
2017-11-17T02:14:37.860Z,34.90
2017-11-17T02:15:39.518Z,34.40
2017-11-17T02:16:40.836Z,32.90
2017-11-17T02:17:42.872Z,35.40
2017-11-17T02:18:44.931Z,39.50
2017-11-17T02:19:46.984Z,32.23
2017-11-17T02:20:49.078Z,36.83
2017-11-17T02:21:50.396Z,36.03
2017-11-17T02:22:51.714Z,37.63
2017-11-17T02:23:53.775Z,34.83
2017-11-17T02:24:55.849Z,35.27
2017-11-17T02:25:57.477Z,33.67
2017-11-17T02:26:59.558Z,31.23
2017-11-17T02:28:00.885Z,32.63
2017-11-17T02:29:02.225Z,35.00
2017-11-17T02:30:03.565Z,33.87
2017-11-17T02:31:05.167Z,36.40
2017-11-17T02:32:06.502Z,36.57
2017-11-17T02:33:07.844Z,35.60
2017-11-17T02:34:09.149Z,40.43
2017-11-17T02:35:10.497Z,33.27
2017-11-17T02:36:12.129Z,33.40
2017-11-17T02:37:13.460Z,36.37
2017-11-17T02:38:14.792Z,35.63
2017-11-17T02:39:16.135Z,34.90
2017-11-17T02:40:17.473Z,33.30
2017-11-17T02:41:19.123Z,34.77
2017-11-17T02:42:20.449Z,33.53
2017-11-17T02:43:21.776Z,36.33
2017-11-17T02:44:23.100Z,36.70
2017-11-17T02:45:25.173Z,33.63
2017-11-17T02:46:26.848Z,33.70
2017-11-17T02:47:28.177Z,32.83
2017-11-17T02:48:29.502Z,32.33
2017-11-17T02:49:30.825Z,34.33
2017-11-17T02:50:32.927Z,32.90
2017-11-17T02:51:34.332Z,35.33
2017-11-17T02:52:35.669Z,35.00
2017-11-17T02:53:37.001Z,32.57
2017-11-17T02:54:39.074Z,36.83
2017-11-17T02:55:40.404Z,34.63
2017-11-17T02:56:42.173Z,39.33
2017-11-17T02:57:43.530Z,31.17
2017-11-17T02:58:44.875Z,39.60
2017-11-17T02:59:46.196Z,38.67
2017-11-17T03:00:47.520Z,35.90
2017-11-17T03:01:49.165Z,31.77
2017-11-17T03:02:50.468Z,36.57
2017-11-17T03:03:52.539Z,34.70
2017-11-17T03:04:53.845Z,34.17
2017-11-17T03:05:55.209Z,31.70
2017-11-17T03:06:57.555Z,32.60
2017-11-17T03:07:59.606Z,35.97
2017-11-17T03:09:00.952Z,36.00
2017-11-17T03:10:03.025Z,37.37
2017-11-17T03:11:04.360Z,38.40
2017-11-17T03:12:06.341Z,36.83
2017-11-17T03:13:07.661Z,34.70
2017-11-17T03:14:08.977Z,37.93
2017-11-17T03:15:11.064Z,36.47
2017-11-17T03:16:12.373Z,39.90
2017-11-17T03:17:14.730Z,36.03
2017-11-17T03:18:16.784Z,34.40
2017-11-17T03:19:18.855Z,39.40
2017-11-17T03:20:20.192Z,36.23
2017-11-17T03:21:22.275Z,38.33
2017-11-17T03:22:23.925Z,34.53
2017-11-17T03:23:25.242Z,36.50
2017-11-17T03:24:26.570Z,31.93
2017-11-17T03:25:27.911Z,35.27
2017-11-17T03:26:29.260Z,37.63
2017-11-17T03:27:30.915Z,39.60
2017-11-17T03:28:32.239Z,36.27
2017-11-17T03:29:33.573Z,34.23
2017-11-17T03:30:34.917Z,35.43
2017-11-17T03:31:36.220Z,34.30
2017-11-17T03:32:37.825Z,33.67
2017-11-17T03:33:39.133Z,34.90
2017-11-17T03:34:40.451Z,35.83
2017-11-17T03:35:42.520Z,37.57
2017-11-17T03:36:44.570Z,37.33
2017-11-17T03:37:46.961Z,38.50
2017-11-17T03:38:48.308Z,36.73
2017-11-17T03:39:49.609Z,35.97
2017-11-17T03:40:51.685Z,39.00
2017-11-17T03:41:53.016Z,37.70
2017-11-17T03:42:54.602Z,36.87
2017-11-17T03:43:55.904Z,44.43
2017-11-17T03:44:57.201Z,37.27
2017-11-17T03:45:58.530Z,41.03
2017-11-17T03:46:59.866Z,38.70
2017-11-17T03:48:01.478Z,35.63
2017-11-17T03:49:02.808Z,39.67
2017-11-17T03:50:04.100Z,36.03
2017-11-17T03:51:05.412Z,34.43
2017-11-17T03:52:06.711Z,41.43
2017-11-17T03:53:08.092Z,37.83
2017-11-17T03:54:09.400Z,37.83
2017-11-17T03:55:10.721Z,34.33
2017-11-17T03:56:12.025Z,37.30
2017-11-17T03:57:13.401Z,36.97
2017-11-17T03:58:15.097Z,37.57
2017-11-17T03:59:16.393Z,38.23
2017-11-17T04:00:17.721Z,35.87
2017-11-17T04:01:19.085Z,36.67
2017-11-17T04:02:21.145Z,36.70
2017-11-17T04:03:23.500Z,35.53
2017-11-17T04:04:24.832Z,36.43
2017-11-17T04:05:26.142Z,35.47
2017-11-17T04:06:28.220Z,35.47
2017-11-17T04:07:29.549Z,36.67
2017-11-17T04:08:31.518Z,41.80
2017-11-17T04:09:32.853Z,40.60
2017-11-17T04:10:34.160Z,41.33
2017-11-17T04:11:36.221Z,38.87
2017-11-17T04:12:38.248Z,40.10
2017-11-17T04:13:39.943Z,41.93
2017-11-17T04:14:41.281Z,41.80
2017-11-17T04:15:42.582Z,56.27
2017-11-17T04:16:44.659Z,47.33
2017-11-17T04:17:45.963Z,45.50
2017-11-17T04:18:48.584Z,56.43
2017-11-17T04:19:49.983Z,50.60
2017-11-17T04:20:52.048Z,50.40
2017-11-17T04:21:54.128Z,51.27
2017-11-17T04:22:55.423Z,52.10
2017-11-17T04:23:57.115Z,48.07
2017-11-17T04:24:58.454Z,45.37
2017-11-17T04:25:59.781Z,47.83
2017-11-17T04:27:01.090Z,49.53
2017-11-17T04:28:03.126Z,47.37
2017-11-17T04:29:04.739Z,55.10
2017-11-17T04:30:06.056Z,53.20
2017-11-17T04:31:07.365Z,52.77
2017-11-17T04:32:09.413Z,44.93
2017-11-17T04:33:10.728Z,49.33
2017-11-17T04:34:12.448Z,51.97
2017-11-17T04:35:13.777Z,56.50
2017-11-17T04:36:15.089Z,53.63
2017-11-17T04:37:17.142Z,51.07
2017-11-17T04:38:19.208Z,52.63
2017-11-17T04:39:21.504Z,53.50
2017-11-17T04:40:22.805Z,54.77
2017-11-17T04:41:24.849Z,52.70
2017-11-17T04:42:27.518Z,49.90
2017-11-17T04:43:29.588Z,51.00
2017-11-17T04:44:32.065Z,52.40
2017-11-17T04:45:33.414Z,49.77
2017-11-17T04:46:34.736Z,53.60
2017-11-17T04:47:36.024Z,51.33
2017-11-17T04:48:37.309Z,50.13
2017-11-17T04:49:38.648Z,51.77
2017-11-17T04:50:39.957Z,55.73
2017-11-17T04:51:41.280Z,49.50
2017-11-17T04:52:42.599Z,45.47
2017-11-17T04:53:43.918Z,51.20
2017-11-17T04:54:45.561Z,56.80
2017-11-17T04:55:46.871Z,47.50
2017-11-17T04:56:48.900Z,50.50
2017-11-17T04:57:50.240Z,57.30
2017-11-17T04:58:51.530Z,56.17
2017-11-17T04:59:53.125Z,54.97
2017-11-17T05:00:54.439Z,52.20
2017-11-17T05:01:55.765Z,57.47
2017-11-17T05:02:57.062Z,53.53
2017-11-17T05:03:59.127Z,53.83
2017-11-17T05:05:00.740Z,52.23
2017-11-17T05:06:03.193Z,56.43
2017-11-17T05:07:05.305Z,49.77
2017-11-17T05:08:06.653Z,51.83
2017-11-17T05:09:07.985Z,50.30
2017-11-17T05:10:09.733Z,52.93
2017-11-17T05:11:11.041Z,52.30
2017-11-17T05:12:13.107Z,55.83
2017-11-17T05:13:14.420Z,53.77
2017-11-17T05:14:16.492Z,55.80
2017-11-17T05:15:18.825Z,53.23
2017-11-17T05:16:20.866Z,54.97
2017-11-17T05:17:23.644Z,54.77
2017-11-17T05:18:25.011Z,54.17
2017-11-17T05:19:27.035Z,51.63
2017-11-17T05:20:28.653Z,59.13
2017-11-17T05:21:29.941Z,61.80
2017-11-17T05:22:31.972Z,55.50
2017-11-17T05:23:33.262Z,59.33
2017-11-17T05:24:34.588Z,54.77
2017-11-17T05:25:36.255Z,57.80
2017-11-17T05:26:37.542Z,53.83
2017-11-17T05:27:38.876Z,56.70
2017-11-17T05:28:40.160Z,54.73
2017-11-17T05:29:41.473Z,53.30
2017-11-17T05:30:43.867Z,53.87
2017-11-17T05:31:45.208Z,56.33
2017-11-17T05:32:46.512Z,57.83
2017-11-17T05:33:48.537Z,62.27
2017-11-17T05:34:49.850Z,62.90
2017-11-17T05:35:51.487Z,60.60
2017-11-17T05:36:52.785Z,67.50
2017-11-17T05:37:54.830Z,62.70
2017-11-17T05:38:56.869Z,58.37
2017-11-17T05:39:58.187Z,52.37
2017-11-17T05:40:59.760Z,56.27
2017-11-17T05:42:01.069Z,53.60
2017-11-17T05:43:02.353Z,52.93
2017-11-17T05:44:04.385Z,57.03
2017-11-17T05:45:05.721Z,51.00
2017-11-17T05:46:07.302Z,58.87
2017-11-17T05:47:08.617Z,56.47
2017-11-17T05:48:09.906Z,53.00
2017-11-17T05:49:11.204Z,54.07
2017-11-17T05:50:13.234Z,45.63
2017-11-17T05:51:14.569Z,45.50
2017-11-17T05:52:15.852Z,46.43
2017-11-17T05:53:17.149Z,48.43
2017-11-17T05:54:18.460Z,42.73
2017-11-17T05:55:19.749Z,46.40
2017-11-17T05:56:22.138Z,51.67
2017-11-17T05:57:23.440Z,51.57
2017-11-17T05:58:25.543Z,51.63
2017-11-17T05:59:26.840Z,47.03
2017-11-17T06:00:28.877Z,52.23
2017-11-17T06:01:30.472Z,50.23
2017-11-17T06:02:31.768Z,50.00
2017-11-17T06:03:33.808Z,46.67
2017-11-17T06:04:35.109Z,50.00
2017-11-17T06:05:36.385Z,48.37
2017-11-17T06:06:37.708Z,47.03
2017-11-17T06:07:39.019Z,47.57
2017-11-17T06:08:40.313Z,46.67
2017-11-17T06:09:42.378Z,48.20
2017-11-17T06:10:44.428Z,55.57
2017-11-17T06:11:46.821Z,46.17
2017-11-17T06:12:48.109Z,47.27
2017-11-17T06:13:49.401Z,45.30
2017-11-17T06:14:50.690Z,50.43
2017-11-17T06:15:52.736Z,45.60
2017-11-17T06:16:54.342Z,47.83
2017-11-17T06:17:55.620Z,46.33
2017-11-17T06:18:56.904Z,46.27
2017-11-17T06:19:58.200Z,47.37
2017-11-17T06:21:00.260Z,46.67
2017-11-17T06:22:02.584Z,46.40
2017-11-17T06:23:03.900Z,43.43
2017-11-17T06:24:05.235Z,46.63
2017-11-17T06:25:06.561Z,48.73
2017-11-17T06:26:07.860Z,43.50
2017-11-17T06:27:09.564Z,43.30
2017-11-17T06:28:10.870Z,40.10
2017-11-17T06:29:12.913Z,42.70
2017-11-17T06:30:14.969Z,42.50
2017-11-17T06:31:17.005Z,41.53
2017-11-17T06:32:18.589Z,43.43
2017-11-17T06:33:19.871Z,46.43
2017-11-17T06:34:21.160Z,49.17
2017-11-17T06:35:22.453Z,47.17
2017-11-17T06:36:23.769Z,45.13
2017-11-17T06:37:25.460Z,43.57
2017-11-17T06:38:27.495Z,42.40
2017-11-17T06:39:28.822Z,44.63
2017-11-17T06:40:30.127Z,48.27
2017-11-17T06:41:31.423Z,45.03
2017-11-17T06:42:32.752Z,41.60
2017-11-17T06:43:34.041Z,43.87
2017-11-17T06:44:35.333Z,48.10
2017-11-17T06:45:36.609Z,44.37
2017-11-17T06:46:37.921Z,42.07
2017-11-17T06:47:39.980Z,43.60
2017-11-17T06:48:42.014Z,41.93
2017-11-17T06:49:43.338Z,40.03
2017-11-17T06:50:44.636Z,45.80
2017-11-17T06:51:45.931Z,40.60
2017-11-17T06:52:47.597Z,46.23
2017-11-17T06:53:49.625Z,44.37
2017-11-17T06:54:50.913Z,36.47
2017-11-17T06:55:52.200Z,38.40
2017-11-17T06:56:53.485Z,41.40
2017-11-17T06:57:55.042Z,38.73
2017-11-17T06:58:56.385Z,39.70
2017-11-17T06:59:57.673Z,39.57
2017-11-17T07:00:59.716Z,40.10
2017-11-17T07:02:01.764Z,37.63
2017-11-17T07:03:03.321Z,40.50
2017-11-17T07:04:05.346Z,40.63
2017-11-17T07:05:06.646Z,38.67
2017-11-17T07:06:07.959Z,36.00
2017-11-17T07:07:09.262Z,36.83
2017-11-17T07:08:10.596Z,35.00
2017-11-17T07:09:11.902Z,35.30
2017-11-17T07:10:13.180Z,36.43
2017-11-17T07:11:14.469Z,37.67
2017-11-17T07:12:15.773Z,35.23
2017-11-17T07:13:17.832Z,37.23
2017-11-17T07:14:19.885Z,34.50
2017-11-17T07:15:21.929Z,30.63
2017-11-17T07:16:23.225Z,32.70
2017-11-17T07:17:24.519Z,31.10
2017-11-17T07:18:26.592Z,32.00
2017-11-17T07:19:27.888Z,31.97
2017-11-17T07:20:29.176Z,31.73
2017-11-17T07:21:30.474Z,32.27
2017-11-17T07:22:31.766Z,33.87
2017-11-17T07:23:33.346Z,33.00
2017-11-17T07:24:34.693Z,33.90
2017-11-17T07:25:35.992Z,32.20
2017-11-17T07:26:37.298Z,33.63
2017-11-17T07:27:38.594Z,35.20
2017-11-17T07:28:40.200Z,35.63
2017-11-17T07:29:41.517Z,34.10
2017-11-17T07:30:42.805Z,37.10
2017-11-17T07:31:44.106Z,39.93
2017-11-17T07:32:45.396Z,38.37
2017-11-17T07:33:47.001Z,37.30
2017-11-17T07:34:49.017Z,36.20
2017-11-17T07:35:51.054Z,37.47
2017-11-17T07:36:53.096Z,36.00
2017-11-17T07:37:54.396Z,32.90
2017-11-17T07:38:55.725Z,34.27
2017-11-17T07:39:57.006Z,33.47
2017-11-17T07:40:58.302Z,35.20
2017-11-17T07:41:59.583Z,34.40
2017-11-17T07:43:00.869Z,34.23
2017-11-17T07:44:02.195Z,33.47
2017-11-17T07:45:03.491Z,33.67
2017-11-17T07:46:04.792Z,36.07
2017-11-17T07:47:06.086Z,35.87
2017-11-17T07:48:08.130Z,35.77
2017-11-17T07:49:09.728Z,34.77
2017-11-17T07:50:11.019Z,34.93
2017-11-17T07:51:12.322Z,34.43
2017-11-17T07:52:13.601Z,33.90
2017-11-17T07:53:15.631Z,37.80
2017-11-17T07:54:16.940Z,38.97
2017-11-17T07:55:18.221Z,34.57
2017-11-17T07:56:19.521Z,36.83
2017-11-17T07:57:20.818Z,34.27
2017-11-17T07:58:22.117Z,36.17
2017-11-17T07:59:23.500Z,33.57
2017-11-17T08:00:24.810Z,36.10
2017-11-17T08:01:26.103Z,33.30
2017-11-17T08:02:27.410Z,34.83
2017-11-17T08:03:29.443Z,33.27
2017-11-17T08:04:32.062Z,31.70
2017-11-17T08:05:33.352Z,34.13
2017-11-17T08:06:35.375Z,33.67
2017-11-17T08:07:36.687Z,34.63
2017-11-17T08:08:38.003Z,34.87
2017-11-17T08:09:39.566Z,36.37
2017-11-17T08:10:40.877Z,33.93
2017-11-17T08:11:42.175Z,32.80
2017-11-17T08:12:43.465Z,32.53
2017-11-17T08:13:44.753Z,34.37
2017-11-17T08:14:46.360Z,32.07
2017-11-17T08:15:47.646Z,32.33
2017-11-17T08:16:49.001Z,35.40
2017-11-17T08:19:24.950Z,31.50
2017-11-17T08:20:27.036Z,33.63
2017-11-17T08:21:28.372Z,29.33
2017-11-17T08:22:29.681Z,32.20
2017-11-17T08:23:31.741Z,32.97
2017-11-17T08:24:33.792Z,31.10
2017-11-17T08:25:35.859Z,31.47
2017-11-17T08:26:37.906Z,31.90
2017-11-17T08:27:39.941Z,31.67
2017-11-17T08:28:41.219Z,36.03
2017-11-17T08:29:42.523Z,33.33
2017-11-17T08:30:44.125Z,31.93
2017-11-17T08:31:45.426Z,33.80
2017-11-17T08:32:47.466Z,31.90
2017-11-17T08:33:49.514Z,33.80
2017-11-17T08:34:50.801Z,33.00
2017-11-17T08:35:52.113Z,32.27
2017-11-17T08:36:54.162Z,29.47
2017-11-17T08:37:56.980Z,31.57
2017-11-17T08:38:58.339Z,29.97
2017-11-17T08:39:59.665Z,29.57
2017-11-17T08:41:01.798Z,31.00
2017-11-17T08:42:03.098Z,32.33
2017-11-17T08:43:05.153Z,29.93
2017-11-17T08:44:07.215Z,27.63
2017-11-17T08:45:09.336Z,29.50
2017-11-17T08:46:10.953Z,29.50
2017-11-17T08:47:12.270Z,27.80
2017-11-17T08:48:13.581Z,29.53
2017-11-17T08:49:14.876Z,30.53
2017-11-17T08:50:16.186Z,27.33
2017-11-17T08:51:17.772Z,27.13
2017-11-17T08:52:19.100Z,30.07
2017-11-17T08:53:20.389Z,27.83
2017-11-17T08:54:22.467Z,28.27
2017-11-17T08:55:23.783Z,32.20
2017-11-17T08:56:26.275Z,28.77
2017-11-17T08:57:27.622Z,26.70
2017-11-17T08:58:28.913Z,29.03
2017-11-17T08:59:30.999Z,28.77
2017-11-17T09:00:32.337Z,25.77
2017-11-17T09:01:33.957Z,28.30
2017-11-17T09:02:35.986Z,28.40
2017-11-17T09:03:37.272Z,26.67
2017-11-17T09:04:38.576Z,26.27
2017-11-17T09:05:39.864Z,26.10
2017-11-17T09:06:41.523Z,40.07
2017-11-17T09:07:42.849Z,35.93
2017-11-17T09:08:44.129Z,31.53
2017-11-17T09:09:45.467Z,29.87
2017-11-17T09:10:46.773Z,28.03
2017-11-17T09:11:48.346Z,26.80
2017-11-17T09:12:49.646Z,28.07
2017-11-17T09:13:50.933Z,30.90
2017-11-17T09:14:52.968Z,33.40
2017-11-17T09:15:54.259Z,35.90
2017-11-17T09:16:55.847Z,35.93
2017-11-17T09:17:57.146Z,35.47
2017-11-17T09:18:58.436Z,36.90
2017-11-17T09:19:59.745Z,37.10
2017-11-17T09:21:01.071Z,35.77
2017-11-17T09:22:02.663Z,36.93
2017-11-17T09:23:04.704Z,38.43
2017-11-17T09:24:06.001Z,35.47
2017-11-17T09:25:07.302Z,35.30
2017-11-17T09:26:09.344Z,36.17
2017-11-17T09:27:10.685Z,36.83
2017-11-17T09:28:12.726Z,36.53
2017-11-17T09:29:14.021Z,39.90
2017-11-17T09:30:15.338Z,36.57
2017-11-17T09:31:16.663Z,38.03
2017-11-17T09:32:18.747Z,37.20
2017-11-17T09:33:20.064Z,36.97
2017-11-17T09:34:22.117Z,36.30
2017-11-17T09:35:24.160Z,36.10
2017-11-17T09:36:26.221Z,33.73
2017-11-17T09:37:28.545Z,39.33
2017-11-17T09:38:29.896Z,33.57
2017-11-17T09:39:31.195Z,39.07
2017-11-17T09:40:32.512Z,33.17
2017-11-17T09:41:33.798Z,36.00
2017-11-17T09:42:36.112Z,35.47
2017-11-17T09:43:37.406Z,36.50
2017-11-17T09:44:38.711Z,35.10
2017-11-17T09:45:40.029Z,37.73
2017-11-17T09:46:41.357Z,34.87
2017-11-17T09:47:43.041Z,32.70
2017-11-17T09:48:44.356Z,36.73
2017-11-17T09:49:45.677Z,35.60
2017-11-17T09:50:47.010Z,35.27
2017-11-17T09:51:48.315Z,34.83
2017-11-17T09:52:49.925Z,33.17
2017-11-17T09:53:51.248Z,33.83
2017-11-17T09:54:52.573Z,35.17
2017-11-17T09:55:53.858Z,32.57
2017-11-17T09:56:55.177Z,33.40
2017-11-17T09:57:56.784Z,31.57
2017-11-17T09:58:58.837Z,29.43
2017-11-17T10:00:00.940Z,31.00
2017-11-17T10:01:02.321Z,32.67
2017-11-17T10:02:03.631Z,32.13
2017-11-17T10:03:05.006Z,31.50
2017-11-17T10:04:07.082Z,32.37
2017-11-17T10:05:08.400Z,28.70
2017-11-17T10:06:10.475Z,31.53
2017-11-17T10:07:11.801Z,28.43
2017-11-17T10:08:14.197Z,30.70
2017-11-17T10:09:15.513Z,30.30
2017-11-17T10:10:16.836Z,32.37
2017-11-17T10:11:18.870Z,30.03
2017-11-17T10:12:20.937Z,29.73
2017-11-17T10:13:23.271Z,32.57
2017-11-17T10:14:24.596Z,29.67
2017-11-17T10:15:25.912Z,27.70
2017-11-17T10:16:27.225Z,33.30
2017-11-17T10:17:29.297Z,31.87
2017-11-17T10:18:31.158Z,28.23
2017-11-17T10:19:32.473Z,28.27
2017-11-17T10:20:34.553Z,30.27
2017-11-17T10:21:35.875Z,30.80
2017-11-17T10:22:37.226Z,29.70
2017-11-17T10:23:38.843Z,31.20
2017-11-17T10:24:40.897Z,27.03
2017-11-17T10:25:42.961Z,28.57
2017-11-17T10:26:45.028Z,29.80
2017-11-17T10:27:46.353Z,30.10
2017-11-17T10:28:49.536Z,27.70
2017-11-17T10:29:51.578Z,30.07
2017-11-17T10:30:53.617Z,29.33
2017-11-17T10:31:54.948Z,32.37
2017-11-17T10:32:56.256Z,30.23
2017-11-17T10:33:57.613Z,29.63
2017-11-17T10:34:58.905Z,32.00
2017-11-17T10:36:00.226Z,29.63
2017-11-17T10:37:02.312Z,28.33
2017-11-17T10:38:04.381Z,30.07
2017-11-17T10:39:05.738Z,30.90
2017-11-17T10:40:07.060Z,29.40
2017-11-17T10:41:08.382Z,28.87
2017-11-17T10:42:09.685Z,32.43
2017-11-17T10:43:11.757Z,30.93
2017-11-17T10:44:13.424Z,28.97
2017-11-17T10:45:14.741Z,32.57
2017-11-17T10:46:16.046Z,31.47
2017-11-17T10:47:17.358Z,30.53
2017-11-17T10:48:18.663Z,28.83
2017-11-17T10:49:20.250Z,30.63
2017-11-17T10:50:21.543Z,30.03
2017-11-17T10:51:22.856Z,31.63
2017-11-17T10:52:24.910Z,27.20
2017-11-17T10:53:26.966Z,29.53
2017-11-17T10:54:29.290Z,27.60
2017-11-17T10:55:30.645Z,28.03
2017-11-17T10:56:31.997Z,29.67
2017-11-17T10:57:34.050Z,27.97
2017-11-17T10:58:35.366Z,28.17
2017-11-17T10:59:38.632Z,29.97
2017-11-17T11:00:39.989Z,28.13
2017-11-17T11:01:42.033Z,30.40
2017-11-17T11:02:43.370Z,31.27
2017-11-17T11:03:44.674Z,27.23
2017-11-17T11:04:46.299Z,28.80
2017-11-17T11:05:48.337Z,28.30
2017-11-17T11:06:49.642Z,28.63
2017-11-17T11:07:50.975Z,32.90
2017-11-17T11:08:52.296Z,27.27
2017-11-17T11:09:53.641Z,28.83
2017-11-17T11:11:01.086Z,29.83
2017-11-17T11:12:03.156Z,28.87
2017-11-17T11:13:05.236Z,31.23
2017-11-17T11:14:06.543Z,29.20
2017-11-17T11:15:08.601Z,27.93
2017-11-17T11:16:09.910Z,30.67
2017-11-17T11:17:11.220Z,27.73
2017-11-17T11:18:12.549Z,31.23
2017-11-17T11:19:13.873Z,28.73
2017-11-17T11:20:15.477Z,27.27
2017-11-17T11:21:17.528Z,30.17
2017-11-17T11:22:18.846Z,28.27
2017-11-17T11:23:20.161Z,29.03
2017-11-17T11:24:21.502Z,29.03
2017-11-17T11:25:22.958Z,28.80
2017-11-17T11:26:24.274Z,27.50
2017-11-17T11:27:25.587Z,28.77
2017-11-17T11:28:26.917Z,28.50
2017-11-17T11:29:28.982Z,27.20
2017-11-17T11:30:30.644Z,26.70
2017-11-17T11:31:31.965Z,31.57
2017-11-17T11:32:33.266Z,28.37
2017-11-17T11:33:34.585Z,26.13
2017-11-17T11:34:35.902Z,27.33
2017-11-17T11:35:37.292Z,28.63
2017-11-17T11:36:39.341Z,29.40
2017-11-17T11:37:40.657Z,27.87
2017-11-17T11:38:41.970Z,26.57
2017-11-17T11:39:43.305Z,27.83
2017-11-17T11:40:44.669Z,28.73
2017-11-17T11:41:45.970Z,29.13
2017-11-17T11:42:47.274Z,29.37
2017-11-17T11:43:49.300Z,31.63
2017-11-17T11:44:50.615Z,29.00
2017-11-17T11:45:51.963Z,27.87
2017-11-17T11:46:53.998Z,29.77
2017-11-17T11:47:55.300Z,27.90
2017-11-17T11:48:57.364Z,27.73
2017-11-17T11:49:59.393Z,28.50
2017-11-17T11:51:00.985Z,28.37
2017-11-17T11:52:02.290Z,24.40
2017-11-17T11:53:04.315Z,30.53
2017-11-17T11:54:05.621Z,25.20
2017-11-17T11:55:06.921Z,29.40
2017-11-17T11:56:16.285Z,26.27
2017-11-17T11:57:17.589Z,26.87
2017-11-17T11:58:19.613Z,26.30
2017-11-17T11:59:20.935Z,25.73
2017-11-17T12:00:22.261Z,23.00
2017-11-17T12:01:23.799Z,24.87
2017-11-17T12:02:25.103Z,26.70
2017-11-17T12:03:27.137Z,24.83
2017-11-17T12:04:28.430Z,25.27
2017-11-17T12:05:29.729Z,24.30
2017-11-17T12:06:31.809Z,26.03
2017-11-17T12:07:33.123Z,23.80
2017-11-17T12:08:35.162Z,24.37
2017-11-17T12:09:36.446Z,24.13
2017-11-17T12:10:37.732Z,26.43
2017-11-17T12:11:39.045Z,24.87
2017-11-17T12:12:40.347Z,24.43
2017-11-17T12:13:41.653Z,24.93
2017-11-17T12:14:42.962Z,24.33
2017-11-17T12:15:44.246Z,23.70
2017-11-17T12:16:46.330Z,23.57
2017-11-17T12:17:47.621Z,22.90
2017-11-17T12:18:49.651Z,23.45
2017-11-17T12:19:50.926Z,23.93
2017-11-17T12:20:52.980Z,22.20
2017-11-17T12:21:55.293Z,21.77
2017-11-17T12:22:56.582Z,20.37
2017-11-17T12:23:58.604Z,25.33
2017-11-17T12:24:59.911Z,25.00
2017-11-17T12:26:01.228Z,22.37
2017-11-17T12:27:02.590Z,23.83
2017-11-17T12:28:03.903Z,21.77
2017-11-17T12:29:05.201Z,26.20
2017-11-17T12:30:06.509Z,20.17
2017-11-17T12:31:07.802Z,22.20
2017-11-17T12:32:10.364Z,19.57
2017-11-17T12:33:12.392Z,22.60
2017-11-17T12:34:13.701Z,23.83
2017-11-17T12:35:14.990Z,21.73
2017-11-17T12:36:17.016Z,24.17
2017-11-17T12:37:18.626Z,22.33
2017-11-17T12:38:19.917Z,23.27
2017-11-17T12:39:21.200Z,20.97
2017-11-17T12:40:22.485Z,21.50
2017-11-17T12:41:23.777Z,24.03
2017-11-17T12:42:26.143Z,21.07
2017-11-17T12:43:28.173Z,23.63
2017-11-17T12:44:29.471Z,20.33
2017-11-17T12:45:30.770Z,24.50
2017-11-17T12:46:32.079Z,25.13
2017-11-17T12:47:34.414Z,22.53
2017-11-17T12:48:35.709Z,22.33
2017-11-17T12:49:36.997Z,21.67
2017-11-17T12:50:39.021Z,22.07
2017-11-17T12:51:40.298Z,22.07
2017-11-17T12:52:42.367Z,20.90
2017-11-17T12:53:43.655Z,20.80
2017-11-17T12:54:44.966Z,22.37
2017-11-17T12:55:46.264Z,21.20
2017-11-17T12:56:48.300Z,22.77
2017-11-17T12:57:49.901Z,22.10
2017-11-17T12:58:51.196Z,21.83
2017-11-17T12:59:53.241Z,21.73
2017-11-17T13:00:54.537Z,22.20
2017-11-17T13:01:55.921Z,22.43
2017-11-17T13:02:57.256Z,24.07
2017-11-17T13:03:58.542Z,23.80
2017-11-17T13:04:59.829Z,21.47
2017-11-17T13:06:01.856Z,23.00
2017-11-17T13:07:03.145Z,21.77
2017-11-17T13:08:04.729Z,22.93
2017-11-17T13:09:06.761Z,23.00
2017-11-17T13:10:08.066Z,22.43
2017-11-17T13:11:10.094Z,22.17
2017-11-17T13:12:11.385Z,21.30
2017-11-17T13:13:12.974Z,22.57
2017-11-17T13:14:14.263Z,24.63
2017-11-17T13:15:15.569Z,35.53